Port O' Connor, Texas
Current Conditions -  °F | °C
As of 7:53 PM on Sunday 25 Jan 2015 (Local Time) from KRKP Reporting Station
Clear Clear  
Wind Chill: 57°   Ceiling: Unl
Heat Index: 57°   Visibility: 10mi
Dew Point: 44°   Wind: 5mph
Humidity: 62%   Direction: 310°NW
Pressure: 30.16"   Gusts: NA
Location:  28.2231°N, 96.6507°W
Report Text: KRKP 260153Z AUTO 31004KT 10SM CLR 14/07 A3016 RMK AO2 SLP213 T01390067 $
Loading
Personal Weather Stations






























Interactive Weather Map New forecast layout! Learn more

10-Day Weather Forecast

Advertisements
Track Severe Weather on mobile